sensor_id;sensor_type;location;lat;lon;timestamp;pressure;altitude;pressure_sealevel;temperature;humidity
73671;BME280;61968;48.178;11.566;2023-02-11T00:00:41;97616.97;;;1.26;36.29
73671;BME280;61968;48.178;11.566;2023-02-11T00:03:08;97613.31;;;1.17;36.28
73671;BME280;61968;48.178;11.566;2023-02-11T00:05:34;97606.44;;;1.16;36.24
73671;BME280;61968;48.178;11.566;2023-02-11T00:08:01;97613.50;;;1.25;36.68
73671;BME280;61968;48.178;11.566;2023-02-11T00:10:29;97614.25;;;1.16;36.67
73671;BME280;61968;48.178;11.566;2023-02-11T00:12:55;97612.34;;;1.18;36.79
73671;BME280;61968;48.178;11.566;2023-02-11T00:15:22;97613.75;;;1.22;36.22
73671;BME280;61968;48.178;11.566;2023-02-11T00:17:49;97617.88;;;1.25;36.37
73671;BME280;61968;48.178;11.566;2023-02-11T00:20:15;97615.69;;;1.20;36.38
73671;BME280;61968;48.178;11.566;2023-02-11T00:22:42;97624.09;;;1.13;36.50
73671;BME280;61968;48.178;11.566;2023-02-11T00:25:08;97618.66;;;1.04;36.82
73671;BME280;61968;48.178;11.566;2023-02-11T00:27:36;97611.25;;;1.00;36.69
73671;BME280;61968;48.178;11.566;2023-02-11T00:30:03;97603.69;;;0.97;37.25
73671;BME280;61968;48.178;11.566;2023-02-11T00:32:30;97615.25;;;1.04;37.28
73671;BME280;61968;48.178;11.566;2023-02-11T00:34:56;97604.97;;;1.02;36.76
73671;BME280;61968;48.178;11.566;2023-02-11T00:37:23;97605.06;;;1.01;36.74
73671;BME280;61968;48.178;11.566;2023-02-11T00:39:49;97607.91;;;1.09;36.89
73671;BME280;61968;48.178;11.566;2023-02-11T00:42:16;97605.41;;;1.08;37.16
73671;BME280;61968;48.178;11.566;2023-02-11T00:44:44;97602.19;;;1.15;37.18
73671;BME280;61968;48.178;11.566;2023-02-11T00:47:10;97593.59;;;1.03;37.00
73671;BME280;61968;48.178;11.566;2023-02-11T00:49:37;97595.16;;;0.95;37.25
73671;BME280;61968;48.178;11.566;2023-02-11T00:52:04;97590.19;;;0.92;37.13
73671;BME280;61968;48.178;11.566;2023-02-11T00:54:30;97587.63;;;0.80;37.78
73671;BME280;61968;48.178;11.566;2023-02-11T00:56:57;97590.44;;;0.89;37.65
73671;BME280;61968;48.178;11.566;2023-02-11T00:59:23;97581.16;;;0.64;38.06
73671;BME280;61968;48.178;11.566;2023-02-11T01:01:51;97582.06;;;0.74;37.88
73671;BME280;61968;48.178;11.566;2023-02-11T01:04:18;97586.53;;;0.83;37.58
73671;BME280;61968;48.178;11.566;2023-02-11T01:06:44;97584.91;;;0.82;37.87
73671;BME280;61968;48.178;11.566;2023-02-11T01:09:10;97583.63;;;0.76;37.81
73671;BME280;61968;48.178;11.566;2023-02-11T01:11:37;97578.66;;;0.73;37.86
73671;BME280;61968;48.178;11.566;2023-02-11T01:14:04;97575.81;;;0.76;37.84
73671;BME280;61968;48.178;11.566;2023-02-11T01:16:30;97583.75;;;0.75;37.61
73671;BME280;61968;48.178;11.566;2023-02-11T01:18:58;97577.13;;;0.71;37.73
73671;BME280;61968;48.178;11.566;2023-02-11T01:21:25;97578.66;;;0.73;37.43
73671;BME280;61968;48.178;11.566;2023-02-11T01:23:51;97570.59;;;0.76;37.78
73671;BME280;61968;48.178;11.566;2023-02-11T01:26:18;97578.19;;;0.68;37.96
73671;BME280;61968;48.178;11.566;2023-02-11T01:28:44;97575.47;;;0.70;37.90
73671;BME280;61968;48.178;11.566;2023-02-11T01:31:11;97573.34;;;0.64;37.70
73671;BME280;61968;48.178;11.566;2023-02-11T01:33:38;97569.84;;;0.53;37.72
73671;BME280;61968;48.178;11.566;2023-02-11T01:36:06;97576.44;;;0.57;37.71
73671;BME280;61968;48.178;11.566;2023-02-11T01:38:34;97580.44;;;0.62;37.69
73671;BME280;61968;48.178;11.566;2023-02-11T01:41:03;97569.78;;;0.65;37.38
73671;BME280;61968;48.178;11.566;2023-02-11T01:43:32;97571.81;;;0.61;37.64
73671;BME280;61968;48.178;11.566;2023-02-11T01:46:05;97583.69;;;0.54;37.50
73671;BME280;61968;48.178;11.566;2023-02-11T01:48:39;97580.44;;;0.62;37.77
73671;BME280;61968;48.178;11.566;2023-02-11T01:51:15;97579.75;;;0.60;37.68
73671;BME280;61968;48.178;11.566;2023-02-11T01:53:43;97577.28;;;0.47;37.73
73671;BME280;61968;48.178;11.566;2023-02-11T01:56:29;97577.75;;;0.52;37.78
73671;BME280;61968;48.178;11.566;2023-02-11T01:59:17;97578.09;;;0.47;38.23
73671;BME280;61968;48.178;11.566;2023-02-11T02:01:50;97573.38;;;0.41;37.89
73671;BME280;61968;48.178;11.566;2023-02-11T02:04:18;97584.66;;;0.42;38.01
73671;BME280;61968;48.178;11.566;2023-02-11T02:06:51;97576.84;;;0.30;38.35
73671;BME280;61968;48.178;11.566;2023-02-11T02:09:23;97571.16;;;0.25;38.31
73671;BME280;61968;48.178;11.566;2023-02-11T02:11:51;97572.22;;;0.34;38.07
73671;BME280;61968;48.178;11.566;2023-02-11T02:14:17;97572.13;;;0.36;37.95
73671;BME280;61968;48.178;11.566;2023-02-11T02:20:29;97556.94;;;0.41;38.16
73671;BME280;61968;48.178;11.566;2023-02-11T02:23:35;97555.88;;;0.43;38.05
73671;BME280;61968;48.178;11.566;2023-02-11T02:26:37;97551.41;;;0.34;38.02
73671;BME280;61968;48.178;11.566;2023-02-11T02:29:21;97540.75;;;0.37;38.00
73671;BME280;61968;48.178;11.566;2023-02-11T02:32:10;97541.56;;;0.38;38.27
73671;BME280;61968;48.178;11.566;2023-02-11T02:34:42;97529.03;;;0.43;37.98
73671;BME280;61968;48.178;11.566;2023-02-11T02:37:17;97517.91;;;0.41;37.96
73671;BME280;61968;48.178;11.566;2023-02-11T02:39:47;97520.16;;;0.45;38.26
73671;BME280;61968;48.178;11.566;2023-02-11T02:42:15;97521.22;;;0.43;37.86
73671;BME280;61968;48.178;11.566;2023-02-11T02:44:47;97521.94;;;0.45;37.73
73671;BME280;61968;48.178;11.566;2023-02-11T02:47:15;97527.72;;;0.48;38.01
73671;BME280;61968;48.178;11.566;2023-02-11T02:49:41;97528.31;;;0.52;37.80
73671;BME280;61968;48.178;11.566;2023-02-11T02:52:15;97517.91;;;0.41;37.75
73671;BME280;61968;48.178;11.566;2023-02-11T02:55:14;97506.81;;;0.39;37.82
73671;BME280;61968;48.178;11.566;2023-02-11T02:57:56;97503.50;;;0.37;37.89
73671;BME280;61968;48.178;11.566;2023-02-11T03:00:31;97503.97;;;0.42;37.42
73671;BME280;61968;48.178;11.566;2023-02-11T03:03:14;97496.75;;;0.45;37.72
73671;BME280;61968;48.178;11.566;2023-02-11T03:05:47;97500.75;;;0.49;36.85
73671;BME280;61968;48.178;11.566;2023-02-11T03:08:17;97497.66;;;0.55;37.03
73671;BME280;61968;48.178;11.566;2023-02-11T03:10:49;97483.19;;;0.30;37.60
73671;BME280;61968;48.178;11.566;2023-02-11T03:13:19;97479.66;;;0.20;37.67
73671;BME280;61968;48.178;11.566;2023-02-11T03:15:49;97478.25;;;0.16;37.63
73671;BME280;61968;48.178;11.566;2023-02-11T03:18:21;97477.25;;;0.28;37.62
73671;BME280;61968;48.178;11.566;2023-02-11T03:20:52;97473.72;;;0.29;37.67
73671;BME280;61968;48.178;11.566;2023-02-11T03:23:22;97470.75;;;0.34;37.94
73671;BME280;61968;48.178;11.566;2023-02-11T03:25:55;97471.25;;;0.28;37.36
73671;BME280;61968;48.178;11.566;2023-02-11T03:28:28;97470.28;;;0.29;37.24
73671;BME280;61968;48.178;11.566;2023-02-11T03:31:07;97477.34;;;0.38;37.32
73671;BME280;61968;48.178;11.566;2023-02-11T03:33:40;97480.81;;;0.39;37.06
73671;BME280;61968;48.178;11.566;2023-02-11T03:36:17;97479.94;;;0.38;37.32
73671;BME280;61968;48.178;11.566;2023-02-11T03:38:49;97483.44;;;0.27;36.83
73671;BME280;61968;48.178;11.566;2023-02-11T03:41:20;97478.06;;;0.40;37.20
73671;BME280;61968;48.178;11.566;2023-02-11T03:43:50;97479.47;;;0.44;36.51
73671;BME280;61968;48.178;11.566;2023-02-11T03:46:20;97483.16;;;0.42;36.62
73671;BME280;61968;48.178;11.566;2023-02-11T03:48:54;97482.56;;;0.38;36.42
73671;BME280;61968;48.178;11.566;2023-02-11T03:51:23;97488.00;;;0.35;36.88
73671;BME280;61968;48.178;11.566;2023-02-11T03:53:53;97490.03;;;0.31;37.05
73671;BME280;61968;48.178;11.566;2023-02-11T03:56:24;97496.66;;;0.36;36.85
73671;BME280;61968;48.178;11.566;2023-02-11T03:58:52;97484.47;;;0.36;36.49
73671;BME280;61968;48.178;11.566;2023-02-11T04:01:18;97487.00;;;0.26;36.61
73671;BME280;61968;48.178;11.566;2023-02-11T04:03:45;97485.94;;;0.18;36.76
73671;BME280;61968;48.178;11.566;2023-02-11T04:06:13;97487.19;;;0.34;36.72
73671;BME280;61968;48.178;11.566;2023-02-11T04:08:39;97487.75;;;0.38;36.28
73671;BME280;61968;48.178;11.566;2023-02-11T04:11:06;97486.13;;;0.37;36.02
73671;BME280;61968;48.178;11.566;2023-02-11T04:13:32;97491.66;;;0.44;36.28
73671;BME280;61968;48.178;11.566;2023-02-11T04:15:59;97507.72;;;0.49;36.49
73671;BME280;61968;48.178;11.566;2023-02-11T04:18:25;97501.00;;;0.46;35.70
73671;BME280;61968;48.178;11.566;2023-02-11T04:20:52;97498.53;;;0.33;36.17
73671;BME280;61968;48.178;11.566;2023-02-11T04:23:19;97508.00;;;0.34;36.40
73671;BME280;61968;48.178;11.566;2023-02-11T04:25:46;97500.91;;;0.37;36.21
73671;BME280;61968;48.178;11.566;2023-02-11T04:28:12;97503.97;;;0.42;35.98
73671;BME280;61968;48.178;11.566;2023-02-11T04:30:39;97508.09;;;0.44;36.15
73671;BME280;61968;48.178;11.566;2023-02-11T04:33:05;97506.44;;;0.43;36.30
73671;BME280;61968;48.178;11.566;2023-02-11T04:35:32;97509.88;;;0.44;35.90
73671;BME280;61968;48.178;11.566;2023-02-11T04:37:58;97511.88;;;0.40;35.98
73671;BME280;61968;48.178;11.566;2023-02-11T04:40:26;97521.22;;;0.43;36.45
73671;BME280;61968;48.178;11.566;2023-02-11T04:42:53;97528.09;;;0.44;35.99
73671;BME280;61968;48.178;11.566;2023-02-11T04:45:19;97524.91;;;0.29;36.41
73671;BME280;61968;48.178;11.566;2023-02-11T04:47:45;97530.03;;;0.19;36.41
73671;BME280;61968;48.178;11.566;2023-02-11T04:50:12;97530.75;;;0.21;36.44
73671;BME280;61968;48.178;11.566;2023-02-11T04:52:38;97533.44;;;0.20;36.76
73671;BME280;61968;48.178;11.566;2023-02-11T04:55:05;97542.34;;;0.17;36.53
73671;BME280;61968;48.178;11.566;2023-02-11T04:57:33;97547.31;;;0.20;36.47
73671;BME280;61968;48.178;11.566;2023-02-11T05:00:00;97542.19;;;0.30;36.69
73671;BME280;61968;48.178;11.566;2023-02-11T05:02:26;97541.13;;;0.32;36.69
73671;BME280;61968;48.178;11.566;2023-02-11T05:04:53;97542.44;;;0.27;36.74
73671;BME280;61968;48.178;11.566;2023-02-11T05:07:19;97535.59;;;0.15;36.70
73671;BME280;61968;48.178;11.566;2023-02-11T05:09:46;97538.06;;;0.05;37.13
73671;BME280;61968;48.178;11.566;2023-02-11T05:12:12;97530.28;;;0.05;37.11
73671;BME280;61968;48.178;11.566;2023-02-11T05:14:41;97530.66;;;0.00;37.23
73671;BME280;61968;48.178;11.566;2023-02-11T05:17:07;97536.66;;;-0.11;37.57
73671;BME280;61968;48.178;11.566;2023-02-11T05:19:33;97526.41;;;-0.12;37.91
73671;BME280;61968;48.178;11.566;2023-02-11T05:22:00;97525.91;;;-0.17;37.70
73671;BME280;61968;48.178;11.566;2023-02-11T05:24:26;97526.75;;;-0.39;38.28
73671;BME280;61968;48.178;11.566;2023-02-11T05:26:53;97518.84;;;-0.49;38.59
73671;BME280;61968;48.178;11.566;2023-02-11T05:29:19;97512.06;;;-0.63;39.10
73671;BME280;61968;48.178;11.566;2023-02-11T05:31:48;97516.81;;;-0.57;39.06
73671;BME280;61968;48.178;11.566;2023-02-11T05:34:14;97522.59;;;-0.53;38.70
73671;BME280;61968;48.178;11.566;2023-02-11T05:36:41;97517.53;;;-0.54;38.80
73671;BME280;61968;48.178;11.566;2023-02-11T05:39:07;97510.91;;;-0.36;38.68
73671;BME280;61968;48.178;11.566;2023-02-11T05:41:34;97512.34;;;-0.43;38.62
73671;BME280;61968;48.178;11.566;2023-02-11T05:44:00;97503.34;;;-0.50;38.29
73671;BME280;61968;48.178;11.566;2023-02-11T05:46:27;97502.53;;;-0.40;38.37
73671;BME280;61968;48.178;11.566;2023-02-11T05:48:54;97504.28;;;-0.29;38.34
73671;BME280;61968;48.178;11.566;2023-02-11T05:51:21;97502.66;;;-0.30;38.04
73671;BME280;61968;48.178;11.566;2023-02-11T05:53:49;97497.81;;;-0.46;38.16
73671;BME280;61968;48.178;11.566;2023-02-11T05:56:16;97488.84;;;-0.19;37.94
73671;BME280;61968;48.178;11.566;2023-02-11T05:58:43;97488.22;;;-0.00;61.89
73671;BME280;61968;48.178;11.566;2023-02-11T06:01:09;97491.34;;;3.31;49.41
73671;BME280;61968;48.178;11.566;2023-02-11T06:03:36;97479.41;;;2.41;42.42
73671;BME280;61968;48.178;11.566;2023-02-11T06:06:04;97479.31;;;1.62;37.31
73671;BME280;61968;48.178;11.566;2023-02-11T06:08:34;97480.44;;;1.17;37.01
73671;BME280;61968;48.178;11.566;2023-02-11T06:11:01;97485.34;;;0.90;37.17
73671;BME280;61968;48.178;11.566;2023-02-11T06:13:27;97493.22;;;0.67;37.71
73671;BME280;61968;48.178;11.566;2023-02-11T06:15:57;97481.78;;;0.58;36.68
73671;BME280;61968;48.178;11.566;2023-02-11T06:18:24;97496.25;;;0.51;36.75
73671;BME280;61968;48.178;11.566;2023-02-11T06:20:51;97499.91;;;0.49;36.67
73671;BME280;61968;48.178;11.566;2023-02-11T06:23:19;97497.91;;;0.41;36.74
73671;BME280;61968;48.178;11.566;2023-02-11T06:25:45;97501.53;;;0.61;37.26
73671;BME280;61968;48.178;11.566;2023-02-11T06:28:12;97507.00;;;0.47;36.99
73671;BME280;61968;48.178;11.566;2023-02-11T06:30:38;97503.63;;;0.35;36.49
73671;BME280;61968;48.178;11.566;2023-02-11T06:33:05;97497.84;;;0.31;36.67
73671;BME280;61968;48.178;11.566;2023-02-11T06:35:32;97500.19;;;0.34;37.13
73671;BME280;61968;48.178;11.566;2023-02-11T06:37:59;97505.88;;;0.28;37.24
73671;BME280;61968;48.178;11.566;2023-02-11T06:40:27;97499.38;;;0.34;36.89
73671;BME280;61968;48.178;11.566;2023-02-11T06:42:54;97500.19;;;0.34;37.09
73671;BME280;61968;48.178;11.566;2023-02-11T06:45:20;97490.28;;;0.28;36.89
73671;BME280;61968;48.178;11.566;2023-02-11T06:47:47;97490.50;;;0.25;37.24
73671;BME280;61968;48.178;11.566;2023-02-11T06:50:16;97487.44;;;0.96;39.71
73671;BME280;61968;48.178;11.566;2023-02-11T06:52:43;97485.66;;;0.64;37.04
73671;BME280;61968;48.178;11.566;2023-02-11T06:55:09;97503.81;;;0.54;36.74
73671;BME280;61968;48.178;11.566;2023-02-11T06:57:37;97506.09;;;1.01;37.66
73671;BME280;61968;48.178;11.566;2023-02-11T07:00:04;97514.56;;;0.93;36.57
73671;BME280;61968;48.178;11.566;2023-02-11T07:02:31;97515.56;;;0.81;35.97
73671;BME280;61968;48.178;11.566;2023-02-11T07:04:57;97528.78;;;0.57;36.44
73671;BME280;61968;48.178;11.566;2023-02-11T07:07:24;97522.50;;;0.60;36.72
73671;BME280;61968;48.178;11.566;2023-02-11T07:09:50;97522.13;;;0.53;36.00
73671;BME280;61968;48.178;11.566;2023-02-11T07:12:17;97518.56;;;1.18;53.24
73671;BME280;61968;48.178;11.566;2023-02-11T07:14:44;97512.31;;;2.13;50.20
73671;BME280;61968;48.178;11.566;2023-02-11T07:17:11;97509.81;;;2.81;42.84
73671;BME280;61968;48.178;11.566;2023-02-11T07:19:38;97500.84;;;2.54;42.94
73671;BME280;61968;48.178;11.566;2023-02-11T07:22:04;97504.03;;;2.97;48.21
73671;BME280;61968;48.178;11.566;2023-02-11T07:24:31;97490.53;;;3.11;36.46
73671;BME280;61968;48.178;11.566;2023-02-11T07:26:57;97485.59;;;2.59;40.05
73671;BME280;61968;48.178;11.566;2023-02-11T07:29:24;97474.72;;;2.45;39.90
73671;BME280;61968;48.178;11.566;2023-02-11T07:31:52;97485.41;;;2.32;43.26
73671;BME280;61968;48.178;11.566;2023-02-11T07:34:18;97499.34;;;3.00;45.86
73671;BME280;61968;48.178;11.566;2023-02-11T07:36:45;97498.13;;;3.61;41.46
73671;BME280;61968;48.178;11.566;2023-02-11T07:39:13;97497.72;;;3.66;38.95
73671;BME280;61968;48.178;11.566;2023-02-11T07:41:39;97508.00;;;3.77;39.73
73671;BME280;61968;48.178;11.566;2023-02-11T07:44:07;97497.69;;;2.99;32.76
73671;BME280;61968;48.178;11.566;2023-02-11T07:46:33;97488.75;;;2.53;32.93
73671;BME280;61968;48.178;11.566;2023-02-11T07:49:01;97478.38;;;2.23;34.24
73671;BME280;61968;48.178;11.566;2023-02-11T07:51:29;97485.03;;;1.86;33.17
73671;BME280;61968;48.178;11.566;2023-02-11T07:53:58;97495.59;;;1.85;33.06
73671;BME280;61968;48.178;11.566;2023-02-11T07:56:25;97490.72;;;1.70;33.54
73671;BME280;61968;48.178;11.566;2023-02-11T07:58:53;97484.66;;;1.60;33.58
73671;BME280;61968;48.178;11.566;2023-02-11T08:01:22;97470.75;;;1.50;34.11
73671;BME280;61968;48.178;11.566;2023-02-11T08:03:52;97463.88;;;1.49;33.90
73671;BME280;61968;48.178;11.566;2023-02-11T08:06:22;97467.47;;;1.48;33.44
73671;BME280;61968;48.178;11.566;2023-02-11T08:08:49;97473.00;;;1.13;33.40
73671;BME280;61968;48.178;11.566;2023-02-11T08:11:17;97478.00;;;1.04;33.92
73671;BME280;61968;48.178;11.566;2023-02-11T08:13:44;97484.88;;;1.26;34.30
73671;BME280;61968;48.178;11.566;2023-02-11T08:16:16;97482.59;;;1.12;33.38
73671;BME280;61968;48.178;11.566;2023-02-11T08:18:42;97475.66;;;1.01;34.35
73671;BME280;61968;48.178;11.566;2023-02-11T08:21:09;97463.09;;;1.07;33.82
73671;BME280;61968;48.178;11.566;2023-02-11T08:23:38;97461.94;;;0.99;34.01
73671;BME280;61968;48.178;11.566;2023-02-11T08:26:08;97470.53;;;1.11;34.51
73671;BME280;61968;48.178;11.566;2023-02-11T08:28:35;97460.63;;;1.05;34.05
73671;BME280;61968;48.178;11.566;2023-02-11T08:31:04;97472.47;;;1.19;34.18
73671;BME280;61968;48.178;11.566;2023-02-11T08:33:31;97473.38;;;1.29;34.73
73671;BME280;61968;48.178;11.566;2023-02-11T08:36:07;97469.88;;;1.19;33.99
73671;BME280;61968;48.178;11.566;2023-02-11T08:38:33;97484.31;;;1.23;33.70
73671;BME280;61968;48.178;11.566;2023-02-11T08:41:02;97497.34;;;1.02;35.20
73671;BME280;61968;48.178;11.566;2023-02-11T08:43:31;97499.88;;;1.13;34.27
73671;BME280;61968;48.178;11.566;2023-02-11T08:45:58;97496.19;;;1.16;34.36
73671;BME280;61968;48.178;11.566;2023-02-11T08:48:25;97494.66;;;1.13;33.92
73671;BME280;61968;48.178;11.566;2023-02-11T08:50:52;97487.75;;;1.23;34.43
73671;BME280;61968;48.178;11.566;2023-02-11T08:53:19;97486.31;;;1.19;34.46
73671;BME280;61968;48.178;11.566;2023-02-11T08:55:48;97491.94;;;1.15;34.37
73671;BME280;61968;48.178;11.566;2023-02-11T08:58:16;97494.22;;;1.08;34.59
73671;BME280;61968;48.178;11.566;2023-02-11T09:00:43;97490.78;;;1.29;34.34
73671;BME280;61968;48.178;11.566;2023-02-11T09:03:10;97481.34;;;1.37;34.77
73671;BME280;61968;48.178;11.566;2023-02-11T09:05:40;97478.75;;;1.58;34.38
73671;BME280;61968;48.178;11.566;2023-02-11T09:08:07;97471.34;;;1.54;35.35
73671;BME280;61968;48.178;11.566;2023-02-11T09:10:34;97478.00;;;2.37;50.29
73671;BME280;61968;48.178;11.566;2023-02-11T09:13:01;97469.44;;;3.79;36.17
73671;BME280;61968;48.178;11.566;2023-02-11T09:15:30;97478.41;;;3.29;33.27
73671;BME280;61968;48.178;11.566;2023-02-11T09:17:56;97471.28;;;2.73;33.38
73671;BME280;61968;48.178;11.566;2023-02-11T09:20:23;97479.41;;;2.60;34.00
73671;BME280;61968;48.178;11.566;2023-02-11T09:22:51;97464.69;;;2.50;33.26
73671;BME280;61968;48.178;11.566;2023-02-11T09:25:17;97451.94;;;2.56;32.90
73671;BME280;61968;48.178;11.566;2023-02-11T09:27:45;97463.59;;;2.52;33.01
73671;BME280;61968;48.178;11.566;2023-02-11T09:30:12;97455.38;;;2.47;32.98
73671;BME280;61968;48.178;11.566;2023-02-11T09:32:40;97458.31;;;2.04;33.98
73671;BME280;61968;48.178;11.566;2023-02-11T09:35:07;97454.88;;;2.03;33.93
73671;BME280;61968;48.178;11.566;2023-02-11T09:37:34;97461.38;;;2.18;34.44
73671;BME280;61968;48.178;11.566;2023-02-11T09:40:01;97463.28;;;2.16;34.25
73671;BME280;61968;48.178;11.566;2023-02-11T09:42:38;97472.84;;;1.97;33.84
73671;BME280;61968;48.178;11.566;2023-02-11T09:45:12;97473.69;;;1.97;34.49
73671;BME280;61968;48.178;11.566;2023-02-11T09:47:46;97472.31;;;1.93;34.69
73671;BME280;61968;48.178;11.566;2023-02-11T09:50:17;97482.75;;;1.93;34.96
73671;BME280;61968;48.178;11.566;2023-02-11T09:52:51;97483.56;;;1.93;34.11
73671;BME280;61968;48.178;11.566;2023-02-11T09:55:20;97477.53;;;1.93;34.58
73671;BME280;61968;48.178;11.566;2023-02-11T09:57:48;97459.13;;;2.04;34.75
73671;BME280;61968;48.178;11.566;2023-02-11T10:00:21;97449.81;;;2.02;35.03
73671;BME280;61968;48.178;11.566;2023-02-11T10:03:13;97451.06;;;2.17;34.86
73671;BME280;61968;48.178;11.566;2023-02-11T10:06:05;97441.84;;;2.23;34.35
73671;BME280;61968;48.178;11.566;2023-02-11T10:08:40;97437.59;;;2.22;35.15
73671;BME280;61968;48.178;11.566;2023-02-11T10:11:18;97434.72;;;2.15;35.06
73671;BME280;61968;48.178;11.566;2023-02-11T10:13:54;97439.25;;;2.23;34.90
73671;BME280;61968;48.178;11.566;2023-02-11T10:16:37;97438.03;;;2.27;35.25
73671;BME280;61968;48.178;11.566;2023-02-11T10:19:21;97446.25;;;2.12;34.64
73671;BME280;61968;48.178;11.566;2023-02-11T10:22:03;97454.50;;;2.37;34.23
73671;BME280;61968;48.178;11.566;2023-02-11T10:24:32;97463.03;;;2.39;33.78
73671;BME280;61968;48.178;11.566;2023-02-11T10:27:00;97460.00;;;2.34;33.99
73671;BME280;61968;48.178;11.566;2023-02-11T10:29:34;97453.16;;;2.43;34.21
73671;BME280;61968;48.178;11.566;2023-02-11T10:32:10;97451.50;;;2.51;33.70
73671;BME280;61968;48.178;11.566;2023-02-11T10:34:42;97447.38;;;2.49;33.53
73671;BME280;61968;48.178;11.566;2023-02-11T10:37:10;97436.94;;;2.58;33.86
73671;BME280;61968;48.178;11.566;2023-02-11T10:39:39;97438.84;;;2.76;33.07
73671;BME280;61968;48.178;11.566;2023-02-11T10:42:09;97448.34;;;2.67;32.93
73671;BME280;61968;48.178;11.566;2023-02-11T10:44:38;97445.88;;;2.75;33.59
73671;BME280;61968;48.178;11.566;2023-02-11T10:47:11;97439.28;;;2.81;33.21
73671;BME280;61968;48.178;11.566;2023-02-11T10:49:42;97440.91;;;2.92;33.13
73671;BME280;61968;48.178;11.566;2023-02-11T10:52:13;97443.47;;;3.01;32.92
73671;BME280;61968;48.178;11.566;2023-02-11T10:54:40;97432.75;;;3.04;32.19
73671;BME280;61968;48.178;11.566;2023-02-11T10:57:11;97425.19;;;3.11;32.21
73671;BME280;61968;48.178;11.566;2023-02-11T10:59:43;97419.97;;;3.11;31.95
73671;BME280;61968;48.178;11.566;2023-02-11T11:02:20;97414.88;;;3.09;31.25
73671;BME280;61968;48.178;11.566;2023-02-11T11:04:55;97412.09;;;3.21;31.89
73671;BME280;61968;48.178;11.566;2023-02-11T11:07:23;97412.09;;;3.30;31.29
73671;BME280;61968;48.178;11.566;2023-02-11T11:09:53;97424.38;;;3.11;30.90
73671;BME280;61968;48.178;11.566;2023-02-11T11:12:45;97419.59;;;2.96;30.96
73671;BME280;61968;48.178;11.566;2023-02-11T11:15:16;97411.41;;;3.19;30.87
73671;BME280;61968;48.178;11.566;2023-02-11T11:17:44;97411.28;;;3.20;30.83
73671;BME280;61968;48.178;11.566;2023-02-11T11:20:23;97413.06;;;3.29;30.72
73671;BME280;61968;48.178;11.566;2023-02-11T11:23:08;97408.53;;;3.12;30.13
73671;BME280;61968;48.178;11.566;2023-02-11T11:25:37;97403.25;;;2.84;30.01
73671;BME280;61968;48.178;11.566;2023-02-11T11:28:05;97404.94;;;3.13;30.82
73671;BME280;61968;48.178;11.566;2023-02-11T11:30:38;97405.50;;;3.26;31.15
73671;BME280;61968;48.178;11.566;2023-02-11T11:33:17;97401.00;;;3.46;30.29
73671;BME280;61968;48.178;11.566;2023-02-11T11:35:54;97387.56;;;3.41;31.14
73671;BME280;61968;48.178;11.566;2023-02-11T11:38:22;97389.97;;;3.52;30.42
73671;BME280;61968;48.178;11.566;2023-02-11T11:41:19;97392.75;;;3.51;30.82
73671;BME280;61968;48.178;11.566;2023-02-11T11:43:54;97387.31;;;3.62;30.28
73671;BME280;61968;48.178;11.566;2023-02-11T11:46:26;97385.25;;;3.66;30.46
73671;BME280;61968;48.178;11.566;2023-02-11T11:48:57;97399.97;;;3.67;30.04
73671;BME280;61968;48.178;11.566;2023-02-11T11:51:28;97404.41;;;3.84;30.35
73671;BME280;61968;48.178;11.566;2023-02-11T11:54:00;97407.50;;;3.97;29.95
73671;BME280;61968;48.178;11.566;2023-02-11T11:56:31;97413.81;;;4.05;29.39
73671;BME280;61968;48.178;11.566;2023-02-11T11:58:59;97402.56;;;4.12;30.24
73671;BME280;61968;48.178;11.566;2023-02-11T12:01:35;97409.97;;;3.99;29.78
73671;BME280;61968;48.178;11.566;2023-02-11T12:04:29;97395.53;;;3.95;28.97
73671;BME280;61968;48.178;11.566;2023-02-11T12:07:10;97385.03;;;3.49;29.89
73671;BME280;61968;48.178;11.566;2023-02-11T12:09:45;97386.97;;;3.47;29.51
73671;BME280;61968;48.178;11.566;2023-02-11T12:12:24;97378.94;;;3.59;29.77
73671;BME280;61968;48.178;11.566;2023-02-11T12:15:02;97381.25;;;3.34;29.94
73671;BME280;61968;48.178;11.566;2023-02-11T12:17:44;97386.34;;;3.36;29.93
73671;BME280;61968;48.178;11.566;2023-02-11T12:20:21;97386.09;;;3.29;30.45
73671;BME280;61968;48.178;11.566;2023-02-11T12:23:02;97386.69;;;3.50;30.37
73671;BME280;61968;48.178;11.566;2023-02-11T12:25:40;97387.78;;;3.75;29.97
73671;BME280;61968;48.178;11.566;2023-02-11T12:28:22;97387.84;;;3.93;29.70
73671;BME280;61968;48.178;11.566;2023-02-11T12:31:02;97380.19;;;4.00;29.68
73671;BME280;61968;48.178;11.566;2023-02-11T12:33:47;97378.69;;;3.97;29.24
73671;BME280;61968;48.178;11.566;2023-02-11T12:36:26;97370.53;;;3.83;29.82
73671;BME280;61968;48.178;11.566;2023-02-11T12:39:08;97367.63;;;4.04;29.54
73671;BME280;61968;48.178;11.566;2023-02-11T12:41:48;97366.75;;;4.13;29.69
73671;BME280;61968;48.178;11.566;2023-02-11T12:44:52;97362.78;;;4.09;30.73
73671;BME280;61968;48.178;11.566;2023-02-11T12:47:29;97358.47;;;4.17;30.03
73671;BME280;61968;48.178;11.566;2023-02-11T12:50:09;97359.66;;;4.23;30.13
73671;BME280;61968;48.178;11.566;2023-02-11T12:52:53;97359.88;;;4.30;29.88
73671;BME280;61968;48.178;11.566;2023-02-11T12:55:25;97356.94;;;4.33;29.67
73671;BME280;61968;48.178;11.566;2023-02-11T12:57:55;97353.56;;;4.40;29.69
73671;BME280;61968;48.178;11.566;2023-02-11T13:00:26;97351.50;;;4.26;29.36
73671;BME280;61968;48.178;11.566;2023-02-11T13:03:00;97345.66;;;4.32;29.93
73671;BME280;61968;48.178;11.566;2023-02-11T13:05:31;97341.53;;;4.30;29.07
73671;BME280;61968;48.178;11.566;2023-02-11T13:08:03;97341.09;;;3.98;29.21
73671;BME280;61968;48.178;11.566;2023-02-11T13:10:37;97352.53;;;3.97;29.19
73671;BME280;61968;48.178;11.566;2023-02-11T13:13:14;97352.09;;;3.84;29.37
73671;BME280;61968;48.178;11.566;2023-02-11T13:15:47;97341.75;;;4.00;30.17
73671;BME280;61968;48.178;11.566;2023-02-11T13:18:34;97338.47;;;4.16;29.92
73671;BME280;61968;48.178;11.566;2023-02-11T13:21:29;97328.00;;;6.05;45.05